createdAt,value
2022-09-21T04:56:48.827Z,7.22
2022-09-21T04:59:52.275Z,7.32
2022-09-21T05:02:54.958Z,7.34
2022-09-21T05:05:58.605Z,7.48
2022-09-21T05:09:20.495Z,7.53
2022-09-21T05:12:23.537Z,7.86
2022-09-21T05:15:26.337Z,7.82
2022-09-21T05:18:30.089Z,8.00
2022-09-21T05:21:32.766Z,8.13
2022-09-21T05:24:35.715Z,8.34
2022-09-21T05:27:38.435Z,8.41
2022-09-21T05:30:51.614Z,8.24
2022-09-21T05:34:31.899Z,8.34
2022-09-21T05:37:45.727Z,8.39
2022-09-21T05:40:50.225Z,8.38
2022-09-21T05:43:53.483Z,8.35
2022-09-21T05:47:04.597Z,8.78
2022-09-21T05:50:17.404Z,8.97
2022-09-21T05:53:26.091Z,9.31
2022-09-21T05:56:49.083Z,9.53
2022-09-21T06:00:04.591Z,9.41
2022-09-21T06:03:29.480Z,9.34
2022-09-21T06:06:32.537Z,9.29
2022-09-21T06:09:37.929Z,9.56
2022-09-21T06:12:43.312Z,9.81
2022-09-21T06:15:46.233Z,9.96
2022-09-21T06:18:49.528Z,10.34
2022-09-21T06:21:52.319Z,10.29
2022-09-21T06:25:20.368Z,10.58
2022-09-21T06:28:25.050Z,10.72
2022-09-21T06:31:31.086Z,10.56
2022-09-21T06:34:33.868Z,10.55
2022-09-21T06:37:44.038Z,10.53
2022-09-21T06:40:46.853Z,10.37
2022-09-21T06:43:54.228Z,10.45
2022-09-21T06:46:57.351Z,10.54
2022-09-21T06:50:00.463Z,10.97
2022-09-21T06:53:03.891Z,10.94
2022-09-21T06:56:08.973Z,11.00
2022-09-21T06:59:11.879Z,11.44
2022-09-21T07:02:15.090Z,11.36
2022-09-21T07:05:18.239Z,11.48
2022-09-21T07:11:47.503Z,11.84
2022-09-21T07:14:50.705Z,11.91
2022-09-21T07:18:06.137Z,11.72
2022-09-21T07:21:22.363Z,12.15
2022-09-21T07:24:25.729Z,12.34
2022-09-21T07:27:37.731Z,12.32
2022-09-21T07:30:41.475Z,12.56
2022-09-21T07:33:47.198Z,13.02
2022-09-21T07:36:50.036Z,12.94
2022-09-21T07:39:53.814Z,13.60
2022-09-21T07:43:02.392Z,13.34
2022-09-21T07:46:10.317Z,13.19
2022-09-21T07:49:13.593Z,13.62
2022-09-21T07:52:16.657Z,13.66
2022-09-21T07:55:19.438Z,13.66
2022-09-21T07:58:41.205Z,13.76
2022-09-21T08:01:44.475Z,14.11
2022-09-21T08:04:47.470Z,14.09
2022-09-21T08:07:50.171Z,14.25
2022-09-21T08:10:54.633Z,13.99
2022-09-21T08:14:04.070Z,14.13
2022-09-21T08:17:07.393Z,14.05
2022-09-21T08:20:10.598Z,14.20
2022-09-21T08:23:14.665Z,14.31
2022-09-21T08:26:20.428Z,14.37
2022-09-21T08:29:27.052Z,14.79
2022-09-21T08:32:50.059Z,14.72
2022-09-21T08:35:55.487Z,14.94
2022-09-21T08:38:58.232Z,14.74
2022-09-21T08:42:26.689Z,15.26
2022-09-21T08:45:43.247Z,15.29
2022-09-21T08:49:05.491Z,15.57
2022-09-21T08:52:28.283Z,16.06
2022-09-21T08:55:32.023Z,16.40
2022-09-21T08:59:15.904Z,15.92
2022-09-21T09:03:24.390Z,16.22
2022-09-21T09:06:59.729Z,16.18
2022-09-21T09:10:27.747Z,16.68
2022-09-21T09:13:40.595Z,16.58
2022-09-21T09:17:25.981Z,16.34
2022-09-21T09:20:39.997Z,16.44
2022-09-21T09:24:00.482Z,16.73
2022-09-21T09:27:17.681Z,16.63
2022-09-21T09:30:23.174Z,16.53
2022-09-21T09:33:51.039Z,15.92
2022-09-21T09:36:59.968Z,16.65
2022-09-21T09:41:01.763Z,17.25
2022-09-21T09:45:02.001Z,17.44
2022-09-21T09:48:17.252Z,16.99
2022-09-21T09:51:27.424Z,17.33
2022-09-21T09:55:58.440Z,17.20
2022-09-21T09:59:08.259Z,17.28
2022-09-21T10:02:27.087Z,17.22
2022-09-21T10:05:35.001Z,17.22
2022-09-21T10:08:48.774Z,17.62
2022-09-21T10:11:58.250Z,17.47
2022-09-21T10:15:23.903Z,17.32
2022-09-21T10:18:33.635Z,16.82
2022-09-21T10:21:41.348Z,17.11
2022-09-21T10:25:39.975Z,17.04
2022-09-21T10:28:57.870Z,17.38
2022-09-21T10:32:26.609Z,17.38
2022-09-21T10:35:29.780Z,17.56
2022-09-21T10:38:33.270Z,17.45
2022-09-21T10:41:38.649Z,17.73
2022-09-21T10:46:23.434Z,17.89
2022-09-21T10:50:02.588Z,17.37
2022-09-21T10:54:22.170Z,17.77
2022-09-21T10:57:28.367Z,17.89
2022-09-21T11:00:54.042Z,18.11
2022-09-21T11:04:43.243Z,18.31
2022-09-21T11:07:57.186Z,18.06
2022-09-21T11:11:39.799Z,17.27
2022-09-21T11:15:34.090Z,17.05
2022-09-21T11:19:35.260Z,17.74
2022-09-21T11:24:16.920Z,17.91
2022-09-21T11:27:41.866Z,17.15
2022-09-21T11:31:02.359Z,17.02
2022-09-21T11:34:34.606Z,17.75
2022-09-21T11:38:08.429Z,17.66
2022-09-21T11:41:39.285Z,17.42
2022-09-21T11:44:55.122Z,17.35
2022-09-21T11:48:30.423Z,17.60
2022-09-21T11:51:45.481Z,17.44
2022-09-21T11:55:00.720Z,17.36
2022-09-21T11:58:18.250Z,17.42
2022-09-21T12:01:43.406Z,17.39
2022-09-21T12:05:15.385Z,17.31
2022-09-21T12:08:59.667Z,17.35
2022-09-21T12:12:10.260Z,17.81
2022-09-21T12:15:39.964Z,16.96
2022-09-21T12:18:49.006Z,16.50
2022-09-21T12:22:00.165Z,17.24
2022-09-21T12:25:27.571Z,17.61
2022-09-21T12:28:52.721Z,17.73
2022-09-21T12:32:25.456Z,17.68
2022-09-21T12:35:38.196Z,17.19
2022-09-21T12:38:48.630Z,17.16
2022-09-21T12:42:24.296Z,17.33
2022-09-21T12:45:33.058Z,16.78
2022-09-21T12:48:42.370Z,16.80
2022-09-21T12:51:54.731Z,16.26
2022-09-21T12:55:41.660Z,16.39
2022-09-21T12:59:09.439Z,16.86
2022-09-21T13:02:18.688Z,16.93
2022-09-21T13:05:36.665Z,17.32
2022-09-21T13:08:44.368Z,17.75
2022-09-21T13:11:56.753Z,17.79
2022-09-21T13:15:13.395Z,17.03
2022-09-21T13:18:43.804Z,16.88
2022-09-21T13:21:46.900Z,17.16
2022-09-21T13:25:29.847Z,16.84
2022-09-21T13:29:03.716Z,16.20
2022-09-21T13:32:12.696Z,16.40
2022-09-21T13:36:04.458Z,16.82
2022-09-21T13:39:14.766Z,17.14
2022-09-21T13:42:32.077Z,17.22
2022-09-21T13:45:35.302Z,17.18
2022-09-21T13:48:44.431Z,16.99
2022-09-21T13:52:05.103Z,17.23
2022-09-21T13:55:33.004Z,16.99
2022-09-21T13:58:42.759Z,17.14
2022-09-21T14:01:47.850Z,17.02
2022-09-21T14:05:43.854Z,16.78
2022-09-21T14:09:28.459Z,16.83
2022-09-21T14:12:46.100Z,16.90
2022-09-21T14:16:41.965Z,16.72
2022-09-21T14:19:54.498Z,16.41
2022-09-21T14:24:28.564Z,16.57
2022-09-21T14:27:46.127Z,16.41
2022-09-21T14:30:56.463Z,16.37
2022-09-21T14:34:05.306Z,16.56
2022-09-21T14:45:05.025Z,16.35
2022-09-21T14:52:54.299Z,16.41
2022-09-21T14:56:00.436Z,16.24
2022-09-21T14:59:38.635Z,16.22
2022-09-21T15:04:03.391Z,15.94
2022-09-21T15:08:03.418Z,15.87
2022-09-21T15:11:39.647Z,15.82
2022-09-21T15:15:42.862Z,15.62
2022-09-21T15:19:04.367Z,15.45
2022-09-21T15:22:22.611Z,15.43
2022-09-21T15:25:34.227Z,15.33
2022-09-21T15:29:15.676Z,15.29
2022-09-21T15:32:38.463Z,15.28
2022-09-21T15:35:47.342Z,15.22
2022-09-21T15:38:52.873Z,15.12
2022-09-21T15:42:20.158Z,15.12
2022-09-21T15:45:25.498Z,14.94
2022-09-21T15:48:33.990Z,14.97
2022-09-21T15:51:53.389Z,14.96
2022-09-21T15:55:19.837Z,14.78
2022-09-21T15:58:37.328Z,14.72
2022-09-21T16:01:44.197Z,14.50
2022-09-21T16:04:52.424Z,14.48
2022-09-21T16:08:07.413Z,14.45
2022-09-21T16:11:38.731Z,14.24
2022-09-21T16:14:57.268Z,14.05
2022-09-21T16:18:05.313Z,14.01
2022-09-21T16:21:13.807Z,13.82
2022-09-21T16:24:20.188Z,13.63
2022-09-21T16:27:32.891Z,13.44
2022-09-21T16:30:40.314Z,13.44
2022-09-21T16:33:46.227Z,13.26
2022-09-21T16:36:52.988Z,13.19
2022-09-21T16:39:59.878Z,13.07
2022-09-21T16:43:05.346Z,13.03
2022-09-21T16:46:08.584Z,12.89
2022-09-21T16:49:26.812Z,12.77
2022-09-21T16:52:32.233Z,12.80
2022-09-21T16:55:35.433Z,12.62
2022-09-21T16:58:38.191Z,12.52
2022-09-21T17:01:41.330Z,12.45
2022-09-21T17:04:44.899Z,12.26
2022-09-21T17:07:59.522Z,12.28
2022-09-21T17:11:04.511Z,12.31
2022-09-21T17:14:07.538Z,12.24
2022-09-21T17:17:17.693Z,12.27
2022-09-21T17:20:31.227Z,12.18
2022-09-21T17:23:34.055Z,12.08
2022-09-21T17:26:47.573Z,12.19
2022-09-21T17:29:51.161Z,12.08
2022-09-21T17:32:55.132Z,11.97
2022-09-21T17:35:57.887Z,11.99
2022-09-21T17:39:02.275Z,12.04
2022-09-21T17:42:21.852Z,11.95
2022-09-21T17:46:05.571Z,11.84
2022-09-21T17:49:11.072Z,11.73
2022-09-21T17:52:38.561Z,11.71
2022-09-21T17:55:54.594Z,11.80
2022-09-21T17:59:02.196Z,11.59
2022-09-21T18:02:24.513Z,11.57
2022-09-21T18:05:29.967Z,11.55
2022-09-21T18:08:35.749Z,11.47
2022-09-21T18:12:07.193Z,11.44
2022-09-21T18:15:19.258Z,11.41
2022-09-21T18:18:42.711Z,11.36
2022-09-21T18:21:50.983Z,11.31
2022-09-21T18:24:56.919Z,11.28
2022-09-21T18:28:09.385Z,11.20
2022-09-21T18:31:42.257Z,11.20
2022-09-21T18:34:54.786Z,11.19
2022-09-21T18:38:22.454Z,11.08
2022-09-21T18:41:40.419Z,11.06
2022-09-21T18:45:01.440Z,10.99
2022-09-21T18:48:26.227Z,10.98
2022-09-21T18:52:02.321Z,10.90
2022-09-21T18:55:17.622Z,10.82
2022-09-21T18:58:20.879Z,10.93
2022-09-21T19:01:24.167Z,10.84
2022-09-21T19:04:27.934Z,10.67
2022-09-21T19:08:13.655Z,10.69
2022-09-21T19:11:22.888Z,10.62
2022-09-21T19:15:17.089Z,10.54
2022-09-21T19:18:31.576Z,10.31
2022-09-21T19:22:14.456Z,10.35
2022-09-21T19:25:31.801Z,10.24
2022-09-21T19:28:46.782Z,10.25
2022-09-21T19:31:49.875Z,10.18
2022-09-21T19:34:53.642Z,10.13
2022-09-21T19:38:02.289Z,10.23
2022-09-21T19:41:17.688Z,10.28
2022-09-21T19:44:38.704Z,10.19
2022-09-21T19:47:52.564Z,10.17
2022-09-21T19:50:58.862Z,10.12
2022-09-21T19:54:22.149Z,10.02
2022-09-21T19:57:44.265Z,9.98
2022-09-21T20:00:52.295Z,9.97
2022-09-21T20:03:56.091Z,10.08
2022-09-21T20:07:05.565Z,10.01
2022-09-21T20:10:22.943Z,9.90
2022-09-21T20:13:58.712Z,10.01
2022-09-21T20:17:10.587Z,10.04
2022-09-21T20:20:21.883Z,10.10
2022-09-21T20:23:25.089Z,10.02
2022-09-21T20:26:28.077Z,10.04
2022-09-21T20:33:16.034Z,10.04
2022-09-21T20:36:18.904Z,9.82
2022-09-21T20:39:21.537Z,9.84
2022-09-21T20:42:25.570Z,9.70
2022-09-21T20:45:28.799Z,9.70
2022-09-21T20:48:31.823Z,9.64
2022-09-21T20:51:35.931Z,9.67
2022-09-21T20:54:39.983Z,9.67
2022-09-21T20:57:43.432Z,9.68
2022-09-21T21:00:46.455Z,9.80
2022-09-21T21:03:49.171Z,9.78
2022-09-21T21:06:52.233Z,9.80
2022-09-21T21:09:54.865Z,9.73
2022-09-21T21:12:58.982Z,9.72
2022-09-21T21:16:06.983Z,9.63
2022-09-21T21:19:13.012Z,9.60
2022-09-21T21:22:15.633Z,9.55
2022-09-21T21:25:18.957Z,9.57
2022-09-21T21:28:21.580Z,9.54
2022-09-21T21:31:25.083Z,9.55
2022-09-21T21:34:27.850Z,9.53
2022-09-21T21:37:30.949Z,9.48
2022-09-21T21:40:35.680Z,9.53
2022-09-21T21:43:39.868Z,9.47
2022-09-21T21:46:43.361Z,9.50
2022-09-21T21:49:46.669Z,9.41
2022-09-21T21:52:49.295Z,9.40
2022-09-21T21:56:04.708Z,9.47
2022-09-21T21:59:07.317Z,9.43
2022-09-21T22:02:10.466Z,9.41
2022-09-21T22:05:13.577Z,9.26
2022-09-21T22:08:16.512Z,9.38
2022-09-21T22:11:19.968Z,9.27
2022-09-21T22:14:23.102Z,9.12
2022-09-21T22:17:26.036Z,9.09
2022-09-21T22:20:28.754Z,8.91
2022-09-21T22:23:32.305Z,8.92
2022-09-21T22:26:45.729Z,8.78
2022-09-21T22:29:48.573Z,8.66
2022-09-21T22:32:51.737Z,8.58
2022-09-21T22:35:54.673Z,8.63
2022-09-21T22:38:57.717Z,8.66
2022-09-21T22:42:01.485Z,8.64
2022-09-21T22:45:04.428Z,8.73
2022-09-21T22:48:07.429Z,8.66
2022-09-21T22:51:10.617Z,8.60
2022-09-21T22:54:13.514Z,8.61
2022-09-21T22:57:16.065Z,8.59
2022-09-21T23:00:18.981Z,8.56
2022-09-21T23:03:21.566Z,8.58
2022-09-21T23:06:26.733Z,8.50
2022-09-21T23:09:29.335Z,8.26
2022-09-21T23:12:35.194Z,8.40
2022-09-21T23:15:37.942Z,8.36
2022-09-21T23:18:42.369Z,8.29
2022-09-21T23:21:49.848Z,8.26
2022-09-21T23:24:52.989Z,8.21
2022-09-21T23:27:55.696Z,8.16
2022-09-21T23:31:00.793Z,8.17
2022-09-21T23:34:08.688Z,8.14
2022-09-21T23:37:11.566Z,8.11
2022-09-21T23:40:14.632Z,8.20
2022-09-21T23:43:17.462Z,8.13
2022-09-21T23:46:23.321Z,8.08
2022-09-21T23:49:26.285Z,8.06
2022-09-21T23:52:30.181Z,7.98
2022-09-21T23:55:33.097Z,7.87
2022-09-21T23:58:35.701Z,7.72
